createdAt,value
2023-02-03T00:03:33.598Z,13.33
2023-02-03T00:08:36.933Z,11.80
2023-02-03T00:13:39.533Z,11.40
2023-02-03T00:18:43.482Z,11.70
2023-02-03T00:23:46.086Z,11.00
2023-02-03T00:28:48.736Z,12.40
2023-02-03T00:33:57.309Z,12.20
2023-02-03T00:39:01.322Z,13.17
2023-02-03T00:44:04.025Z,11.77
2023-02-03T00:49:08.080Z,13.00
2023-02-03T00:54:10.946Z,13.93
2023-02-03T00:59:14.047Z,13.10
2023-02-03T01:04:18.043Z,13.70
2023-02-03T01:09:20.625Z,13.70
2023-02-03T01:14:23.169Z,12.80
2023-02-03T01:19:27.253Z,12.37
2023-02-03T01:24:30.464Z,13.10
2023-02-03T01:29:33.081Z,13.20
2023-02-03T01:34:37.149Z,11.67
2023-02-03T01:39:39.719Z,10.57
2023-02-03T01:44:45.917Z,11.47
2023-02-03T01:49:54.078Z,10.33
2023-02-03T01:55:00.153Z,11.60
2023-02-03T02:05:42.556Z,11.07
2023-02-03T02:10:46.590Z,10.40
2023-02-03T02:15:55.822Z,9.53
2023-02-03T02:21:23.106Z,9.60
2023-02-03T02:26:44.664Z,8.80
2023-02-03T02:32:19.436Z,9.07
2023-02-03T02:37:30.257Z,9.80
2023-02-03T02:49:02.464Z,7.83
2023-02-03T02:54:10.047Z,7.90
2023-02-03T02:59:13.720Z,7.00
2023-02-03T03:04:23.115Z,6.90
2023-02-03T03:09:35.866Z,5.93
2023-02-03T03:14:42.221Z,5.23
2023-02-03T03:19:51.735Z,5.33
2023-02-03T03:25:00.974Z,5.00
2023-02-03T03:30:08.945Z,4.73
2023-02-03T03:35:13.546Z,5.30
2023-02-03T03:40:23.635Z,4.40
2023-02-03T03:45:32.121Z,4.43
2023-02-03T03:50:40.403Z,5.10
2023-02-03T03:55:48.099Z,3.50
2023-02-03T04:00:51.934Z,4.07
2023-02-03T04:05:55.817Z,4.20
2023-02-03T04:10:58.378Z,4.53
2023-02-03T04:16:01.035Z,4.97
2023-02-03T04:21:05.223Z,3.93
2023-02-03T04:26:07.773Z,4.60
2023-02-03T04:31:10.459Z,4.53
2023-02-03T04:36:16.125Z,4.13
2023-02-03T04:41:19.192Z,4.13
2023-02-03T04:46:22.314Z,7.20
2023-02-03T04:51:26.206Z,4.20
2023-02-03T04:56:29.188Z,3.30
2023-02-03T05:01:31.865Z,3.90
2023-02-03T05:06:35.803Z,4.63
2023-02-03T05:11:38.831Z,3.50
2023-02-03T05:16:41.473Z,3.70
2023-02-03T05:21:45.377Z,3.07
2023-02-03T05:26:47.940Z,2.93
2023-02-03T05:31:50.627Z,3.30
2023-02-03T05:36:54.580Z,3.10
2023-02-03T05:41:58.488Z,2.60
2023-02-03T05:47:01.142Z,3.17
2023-02-03T05:52:05.100Z,3.30
2023-02-03T05:57:07.658Z,3.00
2023-02-03T06:02:10.211Z,3.23
2023-02-03T06:07:14.089Z,2.70
2023-02-03T06:12:16.806Z,3.30
2023-02-03T06:17:19.732Z,3.03
2023-02-03T06:22:23.617Z,3.23
2023-02-03T06:27:26.220Z,2.93
2023-02-03T06:32:29.285Z,3.33
2023-02-03T06:37:33.303Z,2.80
2023-02-03T06:42:35.848Z,3.10
2023-02-03T06:47:41.100Z,2.83
2023-02-03T06:52:45.131Z,2.60
2023-02-03T06:57:49.258Z,3.43
2023-02-03T07:02:55.128Z,2.97
2023-02-03T07:07:59.356Z,2.60
2023-02-03T07:13:05.677Z,2.93
2023-02-03T07:18:08.358Z,2.70
2023-02-03T07:23:12.236Z,3.67
2023-02-03T07:28:15.409Z,2.93
2023-02-03T07:33:17.969Z,2.70
2023-02-03T07:38:22.197Z,2.63
2023-02-03T07:43:25.218Z,2.50
2023-02-03T07:48:27.765Z,2.97
2023-02-03T07:53:31.870Z,3.33
2023-02-03T07:58:34.853Z,2.90
2023-02-03T08:03:37.417Z,2.97
2023-02-03T08:08:41.968Z,2.70
2023-02-03T08:13:44.518Z,2.70
2023-02-03T08:18:47.221Z,2.53
2023-02-03T08:23:51.133Z,2.47
2023-02-03T08:28:53.717Z,2.83
2023-02-03T08:33:56.301Z,3.10
2023-02-03T08:39:00.203Z,2.83
2023-02-03T08:44:03.177Z,2.80
2023-02-03T08:49:06.214Z,2.57
2023-02-03T08:54:10.126Z,2.97
2023-02-03T08:59:13.289Z,3.17
2023-02-03T09:04:19.144Z,3.00
2023-02-03T09:09:23.884Z,2.67
2023-02-03T09:14:27.033Z,2.80
2023-02-03T09:19:29.842Z,2.63
2023-02-03T09:24:33.738Z,2.80
2023-02-03T09:29:36.354Z,2.10
2023-02-03T09:34:39.747Z,3.33
2023-02-03T09:39:43.637Z,3.60
2023-02-03T09:44:52.646Z,2.30
2023-02-03T09:49:59.725Z,3.07
2023-02-03T09:55:06.653Z,3.10
2023-02-03T10:00:17.950Z,2.93
2023-02-03T10:05:26.210Z,3.50
2023-02-03T10:10:39.697Z,2.80
2023-02-03T10:16:06.974Z,2.67
2023-02-03T10:21:16.267Z,2.90
2023-02-03T10:26:24.689Z,3.43
2023-02-03T10:31:29.339Z,3.80
2023-02-03T10:36:43.535Z,2.77
2023-02-03T10:41:48.350Z,3.43
2023-02-03T10:46:50.897Z,3.53
2023-02-03T10:51:56.365Z,2.90
2023-02-03T10:57:07.648Z,3.90
2023-02-03T11:02:12.039Z,3.43
2023-02-03T11:07:25.238Z,3.43
2023-02-03T11:12:29.128Z,3.50
2023-02-03T11:17:32.989Z,3.13
2023-02-03T11:22:38.673Z,3.83
2023-02-03T11:27:43.209Z,4.00
2023-02-03T11:32:48.483Z,3.60
2023-02-03T11:37:53.095Z,3.10
2023-02-03T11:43:03.844Z,3.80
2023-02-03T11:48:17.801Z,3.27
2023-02-03T11:53:30.458Z,3.60
2023-02-03T11:59:04.044Z,3.87
2023-02-03T12:04:25.280Z,3.93
2023-02-03T12:09:40.302Z,3.50
2023-02-03T12:14:53.585Z,3.80
2023-02-03T12:20:07.524Z,3.60
2023-02-03T12:25:26.218Z,4.10
2023-02-03T12:30:35.923Z,3.43
2023-02-03T12:35:46.199Z,3.00
2023-02-03T12:40:55.122Z,2.83
2023-02-03T12:46:07.229Z,3.43
2023-02-03T12:51:16.193Z,10.10
2023-02-03T12:56:24.118Z,3.40
2023-02-03T13:01:35.374Z,3.43
2023-02-03T13:06:48.225Z,3.70
2023-02-03T13:11:57.792Z,3.67
2023-02-03T13:17:08.989Z,3.30
2023-02-03T13:22:13.786Z,3.10
2023-02-03T13:27:31.145Z,3.17
2023-02-03T13:32:55.261Z,3.40
2023-02-03T13:38:20.789Z,3.37
2023-02-03T13:43:38.256Z,3.33
2023-02-03T13:48:46.523Z,4.53
2023-02-03T13:53:50.669Z,2.90
2023-02-03T13:59:01.784Z,3.80
2023-02-03T14:04:08.222Z,3.47
2023-02-03T14:09:21.729Z,3.10
2023-02-03T14:15:02.951Z,3.03
2023-02-03T14:20:51.270Z,2.90
2023-02-03T14:25:56.934Z,2.50
2023-02-03T14:31:10.508Z,3.77
2023-02-03T14:36:29.889Z,3.20
2023-02-03T14:41:46.776Z,3.37
2023-02-03T14:47:00.299Z,3.80
2023-02-03T14:52:23.379Z,3.20
2023-02-03T14:57:36.439Z,3.73
2023-02-03T15:03:19.802Z,3.47
2023-02-03T15:08:40.747Z,3.20
2023-02-03T15:13:43.935Z,6.00
2023-02-03T15:18:47.056Z,3.70
2023-02-03T15:23:51.893Z,3.10
2023-02-03T15:28:55.664Z,3.70
2023-02-03T15:34:00.754Z,4.40
2023-02-03T15:39:13.972Z,4.30
2023-02-03T15:44:25.934Z,4.53
2023-02-03T15:49:31.448Z,4.20
2023-02-03T15:54:41.040Z,3.70
2023-02-03T15:59:47.369Z,3.17
2023-02-03T16:04:51.154Z,5.40
2023-02-03T16:09:56.415Z,4.00
2023-02-03T16:15:00.605Z,4.83
2023-02-03T16:20:22.718Z,3.77
2023-02-03T16:25:29.359Z,3.87
2023-02-03T16:30:49.839Z,3.50
2023-02-03T16:36:09.898Z,3.73
2023-02-03T16:41:35.908Z,3.80
2023-02-03T16:46:56.428Z,3.90
2023-02-03T16:51:59.063Z,4.17
2023-02-03T16:57:02.967Z,4.00
2023-02-03T17:02:05.550Z,4.30
2023-02-03T17:07:08.162Z,4.20
2023-02-03T17:12:13.118Z,4.73
2023-02-03T17:17:16.033Z,3.97
2023-02-03T17:22:18.711Z,3.60
2023-02-03T17:27:22.630Z,4.70
2023-02-03T17:32:25.200Z,4.00
2023-02-03T17:37:27.732Z,5.40
2023-02-03T17:58:19.207Z,4.20
2023-02-03T18:03:21.753Z,4.00
2023-02-03T18:08:25.364Z,4.10
2023-02-03T18:13:32.605Z,4.60
2023-02-03T18:18:36.071Z,4.30
2023-02-03T18:23:39.190Z,5.13
2023-02-03T18:28:43.041Z,4.00
2023-02-03T18:33:47.586Z,4.13
2023-02-03T18:38:50.238Z,5.87
2023-02-03T18:43:54.502Z,4.63
2023-02-03T18:48:57.242Z,5.73
2023-02-03T18:54:00.429Z,3.97
2023-02-03T18:59:09.425Z,4.73
2023-02-03T19:04:13.946Z,4.53
2023-02-03T19:09:17.706Z,5.40
2023-02-03T19:14:23.410Z,4.90
2023-02-03T19:19:25.962Z,5.30
2023-02-03T19:24:28.533Z,5.83
2023-02-03T19:29:32.470Z,5.57
2023-02-03T19:34:35.192Z,5.50
2023-02-03T19:39:38.472Z,4.53
2023-02-03T19:44:42.560Z,5.17
2023-02-03T19:49:45.087Z,5.00
2023-02-03T19:54:47.664Z,4.57
2023-02-03T19:59:52.820Z,4.03
2023-02-03T20:05:06.198Z,5.03
2023-02-03T20:10:10.928Z,4.23
2023-02-03T20:15:15.043Z,4.47
2023-02-03T20:20:26.869Z,4.40
2023-02-03T20:25:29.493Z,4.90
2023-02-03T20:30:33.993Z,4.07
2023-02-03T20:35:38.235Z,5.30
2023-02-03T20:40:40.764Z,4.07
2023-02-03T20:45:46.738Z,3.90
2023-02-03T20:50:50.166Z,3.90
2023-02-03T20:55:58.405Z,5.47
2023-02-03T21:01:03.850Z,5.37
2023-02-03T21:06:14.155Z,4.90
2023-02-03T21:11:19.533Z,4.50
2023-02-03T21:16:27.443Z,5.17
2023-02-03T21:21:35.500Z,5.33
2023-02-03T21:26:38.481Z,4.40
2023-02-03T21:31:45.756Z,4.57
2023-02-03T21:36:48.335Z,5.13
2023-02-03T21:41:50.872Z,5.10
2023-02-03T21:46:54.798Z,4.93
2023-02-03T21:51:57.415Z,4.93
2023-02-03T21:57:01.653Z,5.40
2023-02-03T22:02:36.694Z,5.53
2023-02-03T22:07:39.860Z,4.93
2023-02-03T22:12:42.396Z,5.57
2023-02-03T22:17:48.131Z,4.60
2023-02-03T22:22:50.679Z,4.77
2023-02-03T22:27:53.304Z,5.43
2023-02-03T22:32:57.934Z,5.20
2023-02-03T22:38:00.514Z,4.73
2023-02-03T22:43:03.104Z,5.10
2023-02-03T22:48:07.654Z,5.87
2023-02-03T22:53:10.247Z,5.03
2023-02-03T22:58:12.851Z,4.23
2023-02-03T23:03:17.323Z,4.30
2023-02-03T23:08:19.886Z,5.10
2023-02-03T23:13:22.430Z,3.70
2023-02-03T23:18:26.344Z,4.37
2023-02-03T23:23:28.910Z,4.90
2023-02-03T23:28:32.143Z,4.40
2023-02-03T23:33:36.006Z,3.97
2023-02-03T23:38:38.517Z,4.03
2023-02-03T23:43:41.064Z,4.60
2023-02-03T23:48:45.124Z,4.93
2023-02-03T23:53:47.691Z,5.40
2023-02-03T23:58:50.213Z,4.77
